Time;durP1;ratioP1;P1;durP2;ratioP2;P2;SDS_P1;SDS_P2;PMS_P1;PMS_P2;Temp;Humidity;BMP_temperature;BMP_pressure;BME280_temperature;BME280_humidity;BME280_pressure;Samples;Min_cycle;Max_cycle;Signal;HPM_P1;HPM_P2
2021/10/25 00:01:07;;;;;;;6.55;3.13;;;;;;;;;;5106869;28;20187;-67
2021/10/25 00:03:32;;;;;;;4.07;3.03;;;;;;;;;;5106821;28;20771;-67
2021/10/25 00:05:58;;;;;;;3.53;2.65;;;;;;;;;;5106645;28;20031;-67
2021/10/25 00:08:23;;;;;;;3.65;2.72;;;;;;;;;;5105570;28;20419;-67
2021/10/25 00:10:49;;;;;;;3.20;2.22;;;;;;;;;;5107407;28;20441;-67
2021/10/25 00:13:15;;;;;;;3.90;2.53;;;;;;;;;;5106821;28;20515;-67
2021/10/25 00:15:40;;;;;;;3.40;2.40;;;;;;;;;;5104067;28;20039;-67
2021/10/25 00:18:06;;;;;;;3.45;2.65;;;;;;;;;;5100460;28;20053;-67
2021/10/25 00:20:33;;;;;;;2.80;2.15;;;;;;;;;;5102056;28;20461;-67
2021/10/25 00:22:58;;;;;;;2.58;2.03;;;;;;;;;;5093234;28;20020;-68
2021/10/25 00:25:24;;;;;;;2.78;1.88;;;;;;;;;;5105275;28;20422;-68
2021/10/25 00:27:49;;;;;;;3.65;2.40;;;;;;;;;;5104299;28;20035;-68
2021/10/25 00:30:14;;;;;;;3.55;2.20;;;;;;;;;;5108102;28;20064;-68
2021/10/25 00:32:40;;;;;;;3.15;2.17;;;;;;;;;;5104289;28;20403;-68
2021/10/25 00:35:06;;;;;;;3.42;2.30;;;;;;;;;;5101233;28;20036;-70
2021/10/25 00:37:32;;;;;;;2.90;2.20;;;;;;;;;;5105071;28;20059;-68
2021/10/25 00:39:57;;;;;;;2.70;1.92;;;;;;;;;;5104601;28;20059;-68
2021/10/25 00:42:23;;;;;;;2.55;1.92;;;;;;;;;;5083778;28;20036;-68
2021/10/25 00:44:48;;;;;;;2.53;2.15;;;;;;;;;;5102614;28;20059;-68
2021/10/25 00:47:14;;;;;;;3.72;2.25;;;;;;;;;;5102536;28;20024;-68
2021/10/25 00:49:39;;;;;;;3.85;2.05;;;;;;;;;;5100251;28;20471;-68
2021/10/25 00:52:05;;;;;;;2.88;1.98;;;;;;;;;;5101955;28;20409;-68
2021/10/25 00:54:35;;;;;;;3.15;2.25;;;;;;;;;;5102870;28;20039;-68
2021/10/25 00:57:02;;;;;;;2.90;2.40;;;;;;;;;;5100591;28;20119;-68
2021/10/25 00:59:28;;;;;;;3.78;2.60;;;;;;;;;;5103124;28;20356;-68
2021/10/25 01:01:53;;;;;;;2.85;2.35;;;;;;;;;;5103094;28;20036;-68
2021/10/25 01:04:20;;;;;;;2.70;2.13;;;;;;;;;;5103627;28;20173;-68
2021/10/25 01:06:47;;;;;;;3.92;2.55;;;;;;;;;;5101094;28;20031;-68
2021/10/25 01:09:13;;;;;;;5.40;2.67;;;;;;;;;;5104331;28;20035;-68
2021/10/25 01:11:40;;;;;;;2.63;1.98;;;;;;;;;;5100240;28;20338;-68
2021/10/25 01:14:06;;;;;;;4.68;3.40;;;;;;;;;;5101942;28;20028;-68
2021/10/25 01:16:31;;;;;;;3.42;2.72;;;;;;;;;;5104150;28;20165;-68
2021/10/25 01:18:56;;;;;;;8.05;3.70;;;;;;;;;;5102560;28;20138;-68
2021/10/25 01:21:22;;;;;;;3.53;2.50;;;;;;;;;;5104506;28;20071;-68
2021/10/25 01:23:48;;;;;;;3.88;2.47;;;;;;;;;;5103772;28;20050;-68
2021/10/25 01:26:15;;;;;;;5.97;2.75;;;;;;;;;;5100237;28;20028;-68
2021/10/25 01:28:41;;;;;;;5.30;3.72;;;;;;;;;;5104798;28;20539;-68
2021/10/25 01:31:07;;;;;;;5.32;3.72;;;;;;;;;;5101942;28;20035;-68
2021/10/25 01:33:34;;;;;;;3.05;2.53;;;;;;;;;;5103417;28;20409;-68
2021/10/25 01:36:01;;;;;;;3.28;2.33;;;;;;;;;;5104576;28;20554;-68
2021/10/25 01:38:26;;;;;;;2.88;2.30;;;;;;;;;;5105692;28;20088;-68
2021/10/25 01:40:52;;;;;;;7.32;4.07;;;;;;;;;;5103729;28;20453;-68
2021/10/25 01:43:18;;;;;;;3.97;3.42;;;;;;;;;;5102136;28;20050;-68
2021/10/25 01:45:47;;;;;;;4.25;2.60;;;;;;;;;;5104511;28;20385;-68
2021/10/25 01:48:12;;;;;;;5.20;3.13;;;;;;;;;;5104366;28;20042;-68
2021/10/25 01:50:38;;;;;;;3.55;2.92;;;;;;;;;;5098298;28;20118;-67
2021/10/25 01:53:04;;;;;;;3.03;2.33;;;;;;;;;;5101215;28;20402;-68
2021/10/25 01:55:30;;;;;;;2.80;2.10;;;;;;;;;;5104387;28;20039;-67
2021/10/25 01:57:56;;;;;;;4.65;2.63;;;;;;;;;;5105335;28;20104;-67
2021/10/25 02:00:23;;;;;;;4.80;3.28;;;;;;;;;;5101777;28;20044;-67
2021/10/25 02:02:48;;;;;;;5.93;2.47;;;;;;;;;;5091715;28;20036;-67
2021/10/25 02:05:14;;;;;;;3.53;2.70;;;;;;;;;;5104357;28;20522;-67
2021/10/25 02:07:39;;;;;;;3.53;2.45;;;;;;;;;;5102623;28;20369;-67
2021/10/25 02:10:06;;;;;;;2.90;2.40;;;;;;;;;;5106496;28;20043;-67
2021/10/25 02:12:32;;;;;;;3.05;2.15;;;;;;;;;;5104722;28;20020;-67
2021/10/25 02:14:57;;;;;;;4.65;2.53;;;;;;;;;;5103930;28;20444;-67
2021/10/25 02:17:22;;;;;;;3.85;2.60;;;;;;;;;;5090780;28;20028;-67
2021/10/25 02:19:50;;;;;;;4.40;3.30;;;;;;;;;;5102216;28;20084;-67
2021/10/25 02:22:16;;;;;;;4.03;2.60;;;;;;;;;;5100344;28;20031;-67
2021/10/25 02:24:43;;;;;;;2.80;2.15;;;;;;;;;;5102813;28;20032;-67
2021/10/25 02:27:09;;;;;;;4.55;2.35;;;;;;;;;;5106208;28;20031;-67
2021/10/25 02:29:38;;;;;;;3.55;2.97;;;;;;;;;;5105191;28;20089;-67
2021/10/25 02:32:05;;;;;;;3.08;2.55;;;;;;;;;;5084397;28;20027;-67
2021/10/25 02:34:31;;;;;;;3.28;2.17;;;;;;;;;;5106429;28;20027;-67
2021/10/25 02:36:57;;;;;;;2.75;2.15;;;;;;;;;;5103395;28;20066;-67
2021/10/25 02:39:24;;;;;;;3.95;2.85;;;;;;;;;;5102810;28;20023;-68
2021/10/25 02:41:50;;;;;;;2.65;1.98;;;;;;;;;;5105749;28;20608;-67
2021/10/25 02:44:15;;;;;;;5.07;3.33;;;;;;;;;;5104026;28;20107;-68
2021/10/25 02:46:41;;;;;;;4.13;2.78;;;;;;;;;;5102728;28;20084;-67
2021/10/25 02:49:07;;;;;;;3.05;2.50;;;;;;;;;;5102607;28;20062;-67
2021/10/25 02:51:33;;;;;;;5.50;3.70;;;;;;;;;;5106409;27;20095;-67
2021/10/25 02:53:58;;;;;;;7.38;3.05;;;;;;;;;;5107972;28;20122;-67
2021/10/25 02:56:24;;;;;;;3.42;2.75;;;;;;;;;;5105157;28;20373;-67
2021/10/25 02:58:49;;;;;;;4.15;3.22;;;;;;;;;;5102626;28;20027;-67
2021/10/25 03:01:15;;;;;;;2.90;2.28;;;;;;;;;;5106901;28;20031;-67
2021/10/25 03:03:42;;;;;;;4.75;3.33;;;;;;;;;;5107409;27;20039;-67
2021/10/25 03:06:08;;;;;;;5.65;3.92;;;;;;;;;;5094489;28;20160;-67
2021/10/25 03:08:33;;;;;;;3.88;3.20;;;;;;;;;;5107107;28;20035;-67
2021/10/25 03:10:59;;;;;;;4.03;2.88;;;;;;;;;;5106539;28;20097;-67
2021/10/25 03:13:24;;;;;;;4.90;3.15;;;;;;;;;;5108196;28;20449;-67
2021/10/25 03:15:51;;;;;;;3.45;2.60;;;;;;;;;;5102237;28;20070;-67
2021/10/25 03:18:17;;;;;;;3.20;2.63;;;;;;;;;;5107379;28;20086;-67
2021/10/25 03:20:44;;;;;;;3.75;2.83;;;;;;;;;;5106019;28;20477;-67
2021/10/25 03:23:11;;;;;;;3.50;2.85;;;;;;;;;;5091832;28;20059;-67
2021/10/25 03:25:36;;;;;;;6.47;3.55;;;;;;;;;;5108046;28;20032;-68
2021/10/25 03:28:02;;;;;;;4.60;3.70;;;;;;;;;;5107914;28;20467;-67
2021/10/25 03:30:27;;;;;;;3.13;2.63;;;;;;;;;;5107479;28;20024;-67
2021/10/25 03:32:53;;;;;;;5.75;3.05;;;;;;;;;;5087639;28;20028;-67
2021/10/25 03:35:18;;;;;;;5.03;3.83;;;;;;;;;;5106257;28;20043;-67
2021/10/25 03:37:44;;;;;;;3.38;2.55;;;;;;;;;;5105300;28;20441;-67
2021/10/25 03:40:10;;;;;;;3.53;2.67;;;;;;;;;;5105101;28;20448;-67
2021/10/25 03:42:44;;;;;;;9.55;3.30;;;;;;;;;;5106969;28;20038;-67
2021/10/25 03:47:54;;;;;;;5.00;2.95;;;;;;;;;;5104867;28;20039;-67
2021/10/25 03:50:22;;;;;;;3.15;2.40;;;;;;;;;;5104444;28;20057;-67
2021/10/25 03:52:58;;;;;;;3.95;2.75;;;;;;;;;;5106576;28;20071;-67
2021/10/25 03:56:32;;;;;;;5.60;2.67;;;;;;;;;;5105294;28;20088;-67
2021/10/25 03:58:58;;;;;;;8.05;2.90;;;;;;;;;;5091357;28;20446;-67
2021/10/25 04:28:11;;;;;;;4.28;3.08;;;;;;;;;;5105877;28;20027;-68
2021/10/25 04:30:37;;;;;;;3.78;3.10;;;;;;;;;;5088046;28;20023;-68
2021/10/25 04:33:04;;;;;;;5.72;3.47;;;;;;;;;;5103460;28;20027;-68
2021/10/25 04:35:29;;;;;;;5.10;3.67;;;;;;;;;;5104783;28;20036;-67
2021/10/25 04:37:55;;;;;;;7.00;4.38;;;;;;;;;;5106465;28;20110;-68
2021/10/25 04:40:21;;;;;;;7.50;4.78;;;;;;;;;;5101849;28;20504;-67
2021/10/25 04:42:47;;;;;;;5.05;3.60;;;;;;;;;;5091991;28;20032;-67
2021/10/25 04:45:13;;;;;;;4.97;3.63;;;;;;;;;;5104326;28;20124;-68
2021/10/25 04:47:38;;;;;;;4.07;3.05;;;;;;;;;;5088600;28;20115;-68
2021/10/25 04:50:05;;;;;;;6.95;3.90;;;;;;;;;;5102108;28;20111;-68
2021/10/25 04:52:31;;;;;;;6.55;2.85;;;;;;;;;;5101942;28;20115;-68
2021/10/25 04:54:57;;;;;;;4.00;3.00;;;;;;;;;;5102485;28;20118;-68
2021/10/25 04:57:22;;;;;;;3.45;3.10;;;;;;;;;;5103350;28;20043;-68
2021/10/25 04:59:47;;;;;;;3.30;2.67;;;;;;;;;;5106859;28;20039;-68
2021/10/25 05:02:14;;;;;;;6.40;3.75;;;;;;;;;;5099879;28;20432;-68
2021/10/25 05:04:39;;;;;;;5.00;3.13;;;;;;;;;;5103693;28;20031;-68
2021/10/25 05:07:05;;;;;;;4.13;3.17;;;;;;;;;;5103278;28;20038;-68
2021/10/25 05:09:30;;;;;;;9.35;4.70;;;;;;;;;;5106794;28;20035;-68
2021/10/25 05:11:57;;;;;;;4.55;3.63;;;;;;;;;;5102725;28;20103;-68
2021/10/25 05:14:22;;;;;;;3.70;3.03;;;;;;;;;;5105259;28;20088;-67
2021/10/25 05:16:47;;;;;;;3.45;2.88;;;;;;;;;;5101466;28;20035;-68
2021/10/25 05:19:13;;;;;;;4.35;3.40;;;;;;;;;;5085903;28;20032;-68
2021/10/25 05:21:38;;;;;;;4.57;3.97;;;;;;;;;;5104189;28;20109;-68
2021/10/25 05:24:04;;;;;;;9.13;5.90;;;;;;;;;;5102285;28;20043;-67
2021/10/25 05:26:30;;;;;;;4.43;3.83;;;;;;;;;;5103483;28;20440;-67
2021/10/25 05:28:57;;;;;;;4.97;2.75;;;;;;;;;;5102169;28;20067;-68
2021/10/25 05:31:23;;;;;;;3.67;2.80;;;;;;;;;;5104088;28;20035;-68
2021/10/25 05:33:48;;;;;;;5.70;3.53;;;;;;;;;;5103697;28;20028;-67
2021/10/25 05:36:14;;;;;;;5.43;3.70;;;;;;;;;;5101957;28;20104;-67
2021/10/25 05:38:40;;;;;;;3.53;2.80;;;;;;;;;;5100924;28;20035;-67
2021/10/25 05:41:08;;;;;;;4.28;2.83;;;;;;;;;;5085018;28;20020;-68
2021/10/25 05:43:34;;;;;;;4.00;3.22;;;;;;;;;;5100792;28;20063;-68
2021/10/25 05:46:00;;;;;;;5.07;3.33;;;;;;;;;;5104987;28;20055;-66
2021/10/25 05:48:25;;;;;;;5.28;3.75;;;;;;;;;;5090198;28;20034;-66
2021/10/25 05:50:51;;;;;;;3.55;2.65;;;;;;;;;;5101711;28;20078;-66
2021/10/25 05:53:17;;;;;;;4.05;3.65;;;;;;;;;;5100447;28;20043;-67
2021/10/25 05:55:45;;;;;;;6.47;3.30;;;;;;;;;;5084987;28;20072;-67
2021/10/25 05:58:18;;;;;;;16.42;4.00;;;;;;;;;;5101046;28;20265;-67
2021/10/25 06:00:48;;;;;;;4.25;3.05;;;;;;;;;;5102745;28;20086;-66
2021/10/25 06:03:20;;;;;;;5.45;3.55;;;;;;;;;;5087164;28;20032;-67
2021/10/25 06:05:45;;;;;;;3.80;2.80;;;;;;;;;;5101482;28;20160;-67
2021/10/25 06:08:14;;;;;;;4.95;3.50;;;;;;;;;;5101449;28;20548;-66
2021/10/25 06:10:40;;;;;;;5.18;3.25;;;;;;;;;;5104028;28;20035;-66
2021/10/25 06:13:06;;;;;;;7.88;5.18;;;;;;;;;;5100629;28;20031;-67
2021/10/25 06:15:41;;;;;;;4.20;3.33;;;;;;;;;;5101330;28;20110;-66
2021/10/25 06:18:08;;;;;;;6.10;4.07;;;;;;;;;;5102518;28;20506;-66
2021/10/25 06:20:37;;;;;;;6.65;4.82;;;;;;;;;;5098093;28;20052;-66
2021/10/25 06:23:12;;;;;;;6.00;4.97;;;;;;;;;;5100115;28;20032;-67
2021/10/25 06:25:38;;;;;;;4.97;3.40;;;;;;;;;;5103559;28;20370;-66
2021/10/25 06:28:04;;;;;;;4.18;3.25;;;;;;;;;;5093157;28;20114;-66
2021/10/25 06:30:30;;;;;;;13.57;7.90;;;;;;;;;;5105974;28;20424;-66
2021/10/25 06:32:56;;;;;;;6.05;4.35;;;;;;;;;;5106495;28;20114;-66
2021/10/25 06:35:25;;;;;;;6.30;4.85;;;;;;;;;;5106790;28;20054;-66
2021/10/25 06:37:55;;;;;;;5.63;4.40;;;;;;;;;;5103405;28;20854;-66
2021/10/25 06:40:23;;;;;;;6.63;3.90;;;;;;;;;;5106970;28;20035;-67
2021/10/25 06:42:49;;;;;;;5.18;3.65;;;;;;;;;;5104330;28;20278;-66
2021/10/25 06:45:20;;;;;;;5.05;3.95;;;;;;;;;;5092603;28;20445;-67
2021/10/25 06:47:46;;;;;;;3.78;3.15;;;;;;;;;;5105601;28;20050;-66
2021/10/25 06:50:12;;;;;;;6.65;3.05;;;;;;;;;;5093929;28;20028;-67
2021/10/25 06:52:38;;;;;;;5.53;3.45;;;;;;;;;;5105581;28;20032;-66
2021/10/25 06:55:04;;;;;;;4.28;3.30;;;;;;;;;;5108480;28;20032;-66
2021/10/25 06:57:30;;;;;;;3.85;3.28;;;;;;;;;;5104605;28;20059;-66
2021/10/25 06:59:55;;;;;;;5.07;2.70;;;;;;;;;;5088819;27;20116;-66
2021/10/25 07:02:20;;;;;;;6.28;3.35;;;;;;;;;;5106627;27;20583;-66
2021/10/25 07:04:47;;;;;;;3.53;3.05;;;;;;;;;;5091337;28;20099;-66
2021/10/25 07:07:13;;;;;;;5.47;3.67;;;;;;;;;;5105437;28;20048;-68
2021/10/25 07:09:38;;;;;;;3.92;3.08;;;;;;;;;;5103515;28;20081;-69
2021/10/25 07:12:05;;;;;;;5.60;3.80;;;;;;;;;;5092901;28;20088;-68
2021/10/25 07:14:35;;;;;;;4.05;3.00;;;;;;;;;;5104563;28;20034;-69
2021/10/25 07:22:47;;;;;;;3.45;2.88;;;;;;;;;;5106782;28;20027;-68
2021/10/25 08:01:10;;;;;;;3.90;2.92;;;;;;;;;;5104976;28;20037;-68
2021/10/25 08:06:32;;;;;;;4.25;3.33;;;;;;;;;;5077104;28;20374;-68
2021/10/25 08:11:32;;;;;;;4.60;3.60;;;;;;;;;;5101731;28;20027;-68
2021/10/25 08:14:03;;;;;;;4.43;3.50;;;;;;;;;;5105139;28;20039;-68
2021/10/25 08:17:17;;;;;;;4.57;4.05;;;;;;;;;;5105198;28;20038;-68
2021/10/25 08:19:25;;;;;;;5.05;3.70;;;;;;;;;;5097071;28;20134;-68
2021/10/25 08:22:11;;;;;;;3.88;3.40;;;;;;;;;;5105523;28;20058;-68
2021/10/25 08:24:39;;;;;;;6.53;4.85;;;;;;;;;;5103689;28;20554;-68
2021/10/25 08:27:06;;;;;;;5.10;3.83;;;;;;;;;;5086195;28;20492;-68
2021/10/25 08:29:33;;;;;;;7.05;3.90;;;;;;;;;;5105070;28;20122;-68
2021/10/25 08:34:53;;;;;;;7.38;4.85;;;;;;;;;;5090470;28;20042;-68
2021/10/25 08:40:00;;;;;;;4.88;4.38;;;;;;;;;;5106336;28;20035;-68
2021/10/25 08:42:37;;;;;;;5.95;4.32;;;;;;;;;;5102484;28;20059;-68
2021/10/25 08:45:12;;;;;;;5.28;4.10;;;;;;;;;;5102421;28;20070;-68
2021/10/25 08:47:44;;;;;;;6.10;4.88;;;;;;;;;;5105923;28;20039;-68
2021/10/25 08:50:13;;;;;;;6.82;4.93;;;;;;;;;;5103338;28;20085;-68
2021/10/25 08:52:40;;;;;;;5.88;4.45;;;;;;;;;;5103352;28;20036;-68
2021/10/25 08:55:07;;;;;;;5.53;4.00;;;;;;;;;;5103661;28;20044;-68
2021/10/25 08:57:33;;;;;;;5.50;4.70;;;;;;;;;;5106062;28;20039;-68
2021/10/25 09:00:05;;;;;;;9.40;3.85;;;;;;;;;;5104388;28;20038;-68
2021/10/25 09:02:31;;;;;;;8.18;4.45;;;;;;;;;;5086745;28;20486;-68
2021/10/25 09:04:57;;;;;;;5.13;3.90;;;;;;;;;;5107264;28;20043;-69
2021/10/25 09:07:23;;;;;;;6.68;3.90;;;;;;;;;;5101388;28;20146;-68
2021/10/25 09:09:48;;;;;;;5.35;4.32;;;;;;;;;;5106336;28;20053;-68
2021/10/25 09:12:15;;;;;;;6.30;3.88;;;;;;;;;;5086070;28;20027;-68
2021/10/25 09:14:41;;;;;;;5.47;4.97;;;;;;;;;;5102976;28;20036;-68
2021/10/25 09:17:09;;;;;;;10.20;5.25;;;;;;;;;;5103901;28;20104;-68
2021/10/25 09:19:37;;;;;;;5.43;4.30;;;;;;;;;;5105308;28;20110;-68
2021/10/25 09:22:08;;;;;;;8.30;4.65;;;;;;;;;;5101422;28;20035;-68
2021/10/25 09:24:33;;;;;;;;;;;;;;;;;;5102200;28;20470;-69
2021/10/25 09:27:04;;;;;;;6.78;4.60;;;;;;;;;;5071299;28;19914;-68
2021/10/25 09:29:33;;;;;;;8.40;6.20;;;;;;;;;;5101847;28;20104;-68
2021/10/25 09:32:05;;;;;;;4.55;4.05;;;;;;;;;;5103582;28;20027;-68
2021/10/25 09:34:48;;;;;;;11.43;5.03;;;;;;;;;;5104594;28;20736;-68
2021/10/25 09:37:18;;;;;;;8.50;5.93;;;;;;;;;;5101393;28;20043;-68
2021/10/25 09:39:48;;;;;;;6.95;5.13;;;;;;;;;;5100314;28;20035;-68
2021/10/25 09:50:20;;;;;;;9.73;5.30;;;;;;;;;;5097994;28;20028;-68
2021/10/25 09:52:45;;;;;;;7.07;5.65;;;;;;;;;;5101344;28;20028;-68
2021/10/25 09:55:13;;;;;;;26.75;5.80;;;;;;;;;;5101477;28;20084;-68
2021/10/25 09:57:43;;;;;;;5.10;4.28;;;;;;;;;;5101179;28;20031;-68
2021/10/25 10:00:10;;;;;;;9.02;5.50;;;;;;;;;;5098267;28;20084;-68
2021/10/25 10:02:36;;;;;;;4.97;4.18;;;;;;;;;;5103344;28;20030;-68
2021/10/25 10:05:05;;;;;;;6.53;4.53;;;;;;;;;;5080495;28;20035;-68
2021/10/25 10:07:34;;;;;;;6.65;4.82;;;;;;;;;;5099542;28;20027;-68
2021/10/25 10:10:01;;;;;;;7.05;5.45;;;;;;;;;;5099926;28;20597;-68
2021/10/25 10:12:27;;;;;;;7.55;5.03;;;;;;;;;;5102071;28;20058;-68
2021/10/25 10:14:58;;;;;;;8.52;5.18;;;;;;;;;;5104473;28;20040;-68
2021/10/25 10:17:38;;;;;;;5.18;4.22;;;;;;;;;;5104584;28;20440;-68
2021/10/25 10:20:13;;;;;;;5.32;4.53;;;;;;;;;;5101000;28;20609;-68
2021/10/25 10:22:46;;;;;;;11.98;6.18;;;;;;;;;;5082989;28;20031;-68
2021/10/25 10:25:11;;;;;;;8.88;5.72;;;;;;;;;;5099597;28;20066;-68
2021/10/25 10:27:37;;;;;;;8.77;5.03;;;;;;;;;;5099553;28;20062;-68
2021/10/25 10:30:10;;;;;;;11.23;5.95;;;;;;;;;;5104366;28;20110;-62
2021/10/25 10:32:35;;;;;;;6.60;5.95;;;;;;;;;;5104196;28;20099;-63
2021/10/25 10:35:07;;;;;;;4.07;3.33;;;;;;;;;;5102209;28;20123;-63
2021/10/25 10:37:38;;;;;;;6.13;5.25;;;;;;;;;;5105064;28;20046;-63
2021/10/25 10:40:07;;;;;;;6.75;5.80;;;;;;;;;;5096109;28;20062;-63
2021/10/25 10:42:35;;;;;;;10.40;6.15;;;;;;;;;;5102557;28;20380;-63
2021/10/25 10:45:05;;;;;;;7.15;5.35;;;;;;;;;;5099841;28;20031;-63
2021/10/25 10:47:39;;;;;;;9.20;6.10;;;;;;;;;;5086007;28;20438;-63
2021/10/25 10:50:18;;;;;;;6.57;5.43;;;;;;;;;;5100447;28;20040;-63
2021/10/25 10:52:48;;;;;;;11.60;6.43;;;;;;;;;;5102971;28;20032;-68
2021/10/25 10:55:25;;;;;;;5.57;4.82;;;;;;;;;;5103717;28;20045;-63
2021/10/25 11:00:22;;;;;;;;;;;;;;;;;;5099630;28;20038;-63
2021/10/25 11:03:12;;;;;;;6.30;5.28;;;;;;;;;;5107064;28;20296;-63
2021/10/25 11:05:43;;;;;;;7.05;5.72;;;;;;;;;;5086257;28;20118;-63
2021/10/25 11:08:16;;;;;;;7.57;6.00;;;;;;;;;;5104041;28;20036;-63
2021/10/25 11:10:46;;;;;;;6.38;5.70;;;;;;;;;;5109503;28;20036;-63
2021/10/25 11:13:17;;;;;;;6.40;5.57;;;;;;;;;;5105760;28;20101;-63
2021/10/25 11:15:57;;;;;;;7.03;5.93;;;;;;;;;;5105226;28;20138;-63
2021/10/25 11:18:29;;;;;;;5.05;4.55;;;;;;;;;;5108979;28;20024;-63
2021/10/25 11:21:17;;;;;;;9.73;6.43;;;;;;;;;;5090886;28;20060;-63
2021/10/25 11:23:47;;;;;;;6.68;5.57;;;;;;;;;;5104782;28;20140;-63
2021/10/25 11:26:16;;;;;;;7.40;5.72;;;;;;;;;;5106618;28;20050;-63
2021/10/25 11:29:11;;;;;;;5.38;4.38;;;;;;;;;;5106852;28;20040;-63
2021/10/25 11:32:00;;;;;;;8.65;6.32;;;;;;;;;;5107821;28;20054;-63
2021/10/25 11:34:36;;;;;;;7.50;5.18;;;;;;;;;;5095850;28;20058;-63
2021/10/25 11:37:08;;;;;;;8.23;6.63;;;;;;;;;;5099024;28;20456;-63
2021/10/25 11:39:42;;;;;;;5.78;5.00;;;;;;;;;;5106577;28;20107;-63
2021/10/25 11:42:12;;;;;;;5.40;4.53;;;;;;;;;;5105915;28;20120;-63
2021/10/25 11:44:44;;;;;;;9.70;6.93;;;;;;;;;;5107610;28;20043;-63
2021/10/25 11:47:35;;;;;;;5.40;4.75;;;;;;;;;;5107829;28;20042;-63
2021/10/25 11:50:26;;;;;;;7.97;5.72;;;;;;;;;;5105714;28;20107;-63
2021/10/25 11:53:01;;;;;;;6.78;5.80;;;;;;;;;;5098088;28;20600;-62
2021/10/25 11:55:32;;;;;;;5.25;4.72;;;;;;;;;;5108668;28;20042;-63
2021/10/25 11:58:04;;;;;;;6.47;5.03;;;;;;;;;;5107755;28;20024;-63
2021/10/25 12:00:34;;;;;;;6.40;5.53;;;;;;;;;;5105974;28;20162;-63
2021/10/25 12:03:21;;;;;;;6.10;4.90;;;;;;;;;;5108213;28;20031;-63
2021/10/25 12:05:47;;;;;;;9.77;5.03;;;;;;;;;;5106208;28;20514;-63
2021/10/25 12:08:16;;;;;;;7.03;5.78;;;;;;;;;;5107855;28;20054;-63
2021/10/25 12:10:44;;;;;;;8.70;6.30;;;;;;;;;;5103437;28;20115;-65
2021/10/25 12:13:10;;;;;;;7.07;5.25;;;;;;;;;;5105140;28;20110;-62
2021/10/25 12:15:47;;;;;;;5.03;4.47;;;;;;;;;;5107281;28;20102;-62
2021/10/25 12:18:19;;;;;;;8.18;5.97;;;;;;;;;;5101219;28;20048;-63
2021/10/25 12:20:45;;;;;;;6.07;5.47;;;;;;;;;;5102598;28;20077;-63
2021/10/25 12:23:14;;;;;;;8.57;6.28;;;;;;;;;;5108303;28;20035;-63
2021/10/25 12:25:40;;;;;;;9.45;5.93;;;;;;;;;;5105312;28;20039;-63
2021/10/25 12:28:17;;;;;;;8.20;5.43;;;;;;;;;;5109089;28;20055;-63
2021/10/25 12:30:43;;;;;;;6.70;5.25;;;;;;;;;;5106796;28;20650;-62
2021/10/25 12:33:11;;;;;;;7.03;6.28;;;;;;;;;;5106471;28;20028;-62
2021/10/25 12:35:46;;;;;;;5.38;4.78;;;;;;;;;;5105459;28;20038;-63
2021/10/25 12:38:14;;;;;;;6.05;5.45;;;;;;;;;;5102074;28;20031;-62
2021/10/25 12:40:46;;;;;;;4.47;4.07;;;;;;;;;;5102322;28;20346;-62
2021/10/25 12:43:13;;;;;;;10.10;6.90;;;;;;;;;;5104006;28;20127;-62
2021/10/25 12:45:42;;;;;;;5.38;4.82;;;;;;;;;;5103814;28;20041;-62
2021/10/25 12:48:16;;;;;;;7.68;5.20;;;;;;;;;;5107383;28;20051;-62
2021/10/25 12:50:44;;;;;;;6.60;5.25;;;;;;;;;;5107380;28;20039;-62
2021/10/25 12:53:12;;;;;;;7.10;6.13;;;;;;;;;;5090139;28;20038;-62
2021/10/25 12:55:39;;;;;;;9.23;6.45;;;;;;;;;;5091096;28;20040;-62
2021/10/25 12:58:11;;;;;;;7.63;5.63;;;;;;;;;;5104990;28;20035;-62
2021/10/25 13:00:38;;;;;;;8.45;6.72;;;;;;;;;;5088593;28;20584;-62
2021/10/25 13:03:09;;;;;;;12.45;6.00;;;;;;;;;;5107408;28;20028;-63
2021/10/25 13:05:37;;;;;;;12.68;6.47;;;;;;;;;;5105196;28;20114;-62
2021/10/25 13:08:05;;;;;;;8.57;7.22;;;;;;;;;;5100916;28;20119;-62
2021/10/25 13:10:42;;;;;;;6.60;4.95;;;;;;;;;;5107354;28;20427;-62
2021/10/25 13:13:11;;;;;;;7.97;6.80;;;;;;;;;;5103746;28;20116;-62
2021/10/25 13:15:40;;;;;;;7.10;5.55;;;;;;;;;;5101890;28;20039;-62
2021/10/25 13:18:08;;;;;;;6.82;5.85;;;;;;;;;;5103082;28;20610;-62
2021/10/25 13:20:36;;;;;;;6.65;5.78;;;;;;;;;;5101689;28;20023;-62
2021/10/25 13:23:04;;;;;;;12.73;6.95;;;;;;;;;;5102944;28;20028;-62
2021/10/25 13:25:30;;;;;;;8.40;5.72;;;;;;;;;;5104263;28;20043;-62
2021/10/25 13:27:58;;;;;;;7.10;6.32;;;;;;;;;;5105870;28;20026;-62
2021/10/25 13:30:25;;;;;;;8.30;6.20;;;;;;;;;;5100479;28;20035;-62
2021/10/25 13:32:51;;;;;;;6.70;5.53;;;;;;;;;;5103137;28;20043;-62
2021/10/25 13:35:17;;;;;;;7.07;5.22;;;;;;;;;;5090339;28;20043;-62
2021/10/25 13:37:45;;;;;;;7.80;7.00;;;;;;;;;;5103797;28;20107;-63
2021/10/25 13:40:12;;;;;;;7.50;6.10;;;;;;;;;;5102992;28;20066;-62
2021/10/25 13:42:38;;;;;;;12.98;7.00;;;;;;;;;;5105367;28;20067;-62
2021/10/25 13:45:05;;;;;;;11.98;6.47;;;;;;;;;;5103426;28;20055;-62
2021/10/25 13:47:30;;;;;;;6.95;5.63;;;;;;;;;;5104443;28;20059;-61
2021/10/25 13:49:56;;;;;;;6.32;5.63;;;;;;;;;;5101471;28;20078;-61
2021/10/25 13:52:23;;;;;;;7.68;6.40;;;;;;;;;;5104641;28;20086;-61
2021/10/25 13:54:50;;;;;;;7.18;4.95;;;;;;;;;;5103282;28;20464;-63
2021/10/25 13:57:20;;;;;;;7.88;4.78;;;;;;;;;;5105411;28;20112;-61
2021/10/25 13:59:45;;;;;;;14.05;7.15;;;;;;;;;;5098776;28;20356;-61
2021/10/25 14:02:13;;;;;;;7.72;6.28;;;;;;;;;;5098585;28;20043;-61
2021/10/25 14:04:46;;;;;;;7.32;4.85;;;;;;;;;;5102317;28;20034;-61
2021/10/25 14:07:16;;;;;;;8.20;5.72;;;;;;;;;;5096730;28;20031;-61
2021/10/25 14:09:43;;;;;;;4.68;4.03;;;;;;;;;;5102774;28;20123;-61
2021/10/25 14:12:09;;;;;;;8.52;5.50;;;;;;;;;;5102186;28;20028;-61
2021/10/25 14:14:36;;;;;;;8.02;6.15;;;;;;;;;;5101888;28;20457;-61
2021/10/25 14:17:02;;;;;;;6.40;4.78;;;;;;;;;;5102098;28;20058;-61
2021/10/25 14:19:28;;;;;;;10.90;6.97;;;;;;;;;;5099728;28;20027;-61
2021/10/25 14:21:55;;;;;;;7.18;6.13;;;;;;;;;;5104805;28;20423;-61
2021/10/25 14:24:23;;;;;;;8.77;5.35;;;;;;;;;;5100831;28;20031;-61
2021/10/25 14:26:50;;;;;;;5.20;4.70;;;;;;;;;;5088987;28;20473;-61
2021/10/25 14:29:16;;;;;;;6.95;5.90;;;;;;;;;;5101827;28;20031;-61
2021/10/25 14:31:44;;;;;;;6.57;5.35;;;;;;;;;;5099513;28;20057;-61
2021/10/25 14:34:10;;;;;;;6.28;5.53;;;;;;;;;;5101456;28;20057;-61
2021/10/25 14:36:36;;;;;;;6.00;5.28;;;;;;;;;;5099732;28;20362;-61
2021/10/25 14:44:41;;;;;;;9.30;5.78;;;;;;;;;;5100368;28;20035;-61
2021/10/25 14:55:16;;;;;;;8.48;6.68;;;;;;;;;;5104527;28;20062;-61
2021/10/25 14:57:41;;;;;;;5.22;4.72;;;;;;;;;;5104093;28;20035;-62
2021/10/25 15:00:08;;;;;;;8.60;5.97;;;;;;;;;;5104267;28;20035;-62
2021/10/25 15:02:35;;;;;;;6.47;5.60;;;;;;;;;;5085246;28;20019;-61
2021/10/25 15:05:02;;;;;;;7.18;5.43;;;;;;;;;;5104844;28;20417;-61
2021/10/25 15:07:27;;;;;;;9.75;6.78;;;;;;;;;;5105206;28;20057;-61
2021/10/25 15:09:55;;;;;;;7.25;5.32;;;;;;;;;;5106255;28;20028;-61
2021/10/25 15:12:22;;;;;;;7.18;6.47;;;;;;;;;;5102812;28;20035;-61
2021/10/25 15:14:51;;;;;;;6.75;4.97;;;;;;;;;;5107517;28;20035;-61
2021/10/25 15:17:17;;;;;;;11.68;6.63;;;;;;;;;;5103126;28;20043;-61
2021/10/25 15:19:43;;;;;;;5.70;4.80;;;;;;;;;;5092814;28;20024;-68
2021/10/25 15:22:11;;;;;;;10.43;5.85;;;;;;;;;;5104826;28;20031;-68
2021/10/25 15:24:41;;;;;;;9.30;6.38;;;;;;;;;;5105460;28;20032;-68
2021/10/25 15:27:28;;;;;;;9.15;6.15;;;;;;;;;;5105359;28;20032;-68
2021/10/25 15:29:55;;;;;;;9.90;7.20;;;;;;;;;;5106736;28;20024;-68
2021/10/25 15:32:23;;;;;;;6.85;6.07;;;;;;;;;;5101531;28;20036;-68
2021/10/25 15:34:51;;;;;;;7.60;6.43;;;;;;;;;;5100706;28;20068;-68
2021/10/25 15:37:20;;;;;;;7.43;6.28;;;;;;;;;;5104043;28;20028;-67
2021/10/25 15:39:45;;;;;;;5.70;4.38;;;;;;;;;;5103634;28;20020;-68
2021/10/25 15:42:18;;;;;;;7.60;5.22;;;;;;;;;;5101335;28;20124;-67
2021/10/25 15:44:44;;;;;;;7.20;5.57;;;;;;;;;;5093803;28;20028;-67
2021/10/25 15:47:15;;;;;;;5.72;4.35;;;;;;;;;;5104293;28;20048;-68
2021/10/25 15:49:44;;;;;;;;;;;;;;;;;;5104961;28;20046;-68
2021/10/25 15:52:10;;;;;;;9.30;6.18;;;;;;;;;;5105105;28;19915;-66
2021/10/25 15:54:37;;;;;;;5.28;4.50;;;;;;;;;;5103190;28;20503;-68
2021/10/25 15:57:02;;;;;;;13.57;5.97;;;;;;;;;;5103675;28;20042;-68
2021/10/25 15:59:28;;;;;;;7.18;5.35;;;;;;;;;;5105961;28;20392;-67
2021/10/25 16:01:53;;;;;;;7.78;5.35;;;;;;;;;;5087498;28;20035;-68
2021/10/25 16:04:19;;;;;;;7.38;5.97;;;;;;;;;;5108418;28;20078;-68
2021/10/25 16:06:44;;;;;;;7.22;6.20;;;;;;;;;;5104110;28;20495;-66
2021/10/25 16:09:10;;;;;;;8.63;6.53;;;;;;;;;;5092448;28;20088;-68
2021/10/25 16:11:37;;;;;;;6.47;5.40;;;;;;;;;;5108129;28;20118;-68
2021/10/25 16:14:04;;;;;;;7.05;6.35;;;;;;;;;;5105947;28;20032;-68
2021/10/25 16:16:29;;;;;;;9.80;5.22;;;;;;;;;;5104385;28;20038;-67
2021/10/25 16:18:55;;;;;;;4.78;4.20;;;;;;;;;;5105983;28;20036;-67
2021/10/25 16:21:21;;;;;;;13.18;6.25;;;;;;;;;;5092178;28;20036;-67
2021/10/25 16:23:47;;;;;;;5.35;4.50;;;;;;;;;;5105159;28;20127;-67
2021/10/25 16:26:12;;;;;;;12.02;6.05;;;;;;;;;;5107149;28;20027;-67
2021/10/25 16:28:38;;;;;;;5.57;4.72;;;;;;;;;;5104482;28;20123;-67
2021/10/25 16:31:04;;;;;;;6.40;4.53;;;;;;;;;;5105434;28;20507;-68
2021/10/25 16:33:31;;;;;;;8.10;5.68;;;;;;;;;;5106779;28;20491;-66
2021/10/25 16:35:57;;;;;;;7.63;5.63;;;;;;;;;;5106809;28;20409;-67